createdAt,value
2022-10-05T00:00:12.568Z,83.21
2022-10-05T00:02:41.588Z,82.62
2022-10-05T00:05:15.746Z,82.24
2022-10-05T00:07:46.702Z,81.86
2022-10-05T00:10:17.218Z,83.47
2022-10-05T00:12:45.480Z,82.32
2022-10-05T00:15:13.810Z,83.45
2022-10-05T00:17:43.253Z,83.24
2022-10-05T00:20:21.860Z,83.92
2022-10-05T00:22:49.633Z,85.36
2022-10-05T00:25:17.814Z,84.64
2022-10-05T00:27:55.232Z,82.99
2022-10-05T00:30:23.295Z,83.61
2022-10-05T00:32:57.259Z,84.51
2022-10-05T00:35:28.308Z,84.58
2022-10-05T00:37:56.543Z,86.40
2022-10-05T00:40:44.852Z,87.23
2022-10-05T00:43:17.176Z,86.13
2022-10-05T00:45:45.056Z,86.53
2022-10-05T00:48:16.366Z,86.99
2022-10-05T00:50:50.387Z,87.06
2022-10-05T00:53:21.341Z,86.23
2022-10-05T00:55:51.647Z,84.58
2022-10-05T00:58:24.553Z,85.36
2022-10-05T01:00:54.021Z,84.35
2022-10-05T01:03:24.472Z,84.79
2022-10-05T01:05:55.222Z,85.65
2022-10-05T01:08:26.145Z,86.66
2022-10-05T01:10:57.870Z,86.10
2022-10-05T01:13:29.447Z,84.83
2022-10-05T01:16:00.463Z,85.26
2022-10-05T01:18:31.260Z,85.90
2022-10-05T01:21:00.174Z,84.76
2022-10-05T01:23:35.801Z,84.39
2022-10-05T01:26:08.833Z,84.77
2022-10-05T01:28:39.003Z,85.65
2022-10-05T01:31:13.295Z,84.54
2022-10-05T01:33:42.126Z,85.33
2022-10-05T01:36:11.092Z,86.50
2022-10-05T01:38:43.264Z,85.24
2022-10-05T01:41:16.674Z,84.77
2022-10-05T01:43:47.677Z,84.43
2022-10-05T01:46:18.220Z,84.33
2022-10-05T01:48:49.129Z,85.29
2022-10-05T01:51:17.726Z,85.93
2022-10-05T01:53:47.852Z,86.87
2022-10-05T01:56:19.038Z,88.65
2022-10-05T01:58:49.839Z,88.63
2022-10-05T02:01:18.418Z,87.21
2022-10-05T02:03:46.758Z,89.00
2022-10-05T02:06:14.974Z,88.66
2022-10-05T02:08:44.718Z,88.31
2022-10-05T02:11:15.883Z,87.43
2022-10-05T02:13:44.703Z,85.55
2022-10-05T02:16:17.001Z,86.20
2022-10-05T02:18:46.374Z,86.33
2022-10-05T02:21:16.988Z,86.12
2022-10-05T02:23:45.184Z,84.66
2022-10-05T02:26:13.182Z,87.21
2022-10-05T02:28:41.282Z,85.49
2022-10-05T02:31:09.771Z,85.86
2022-10-05T02:33:50.044Z,86.32
2022-10-05T02:36:18.200Z,85.56
2022-10-05T02:38:51.422Z,85.63
2022-10-05T02:41:22.372Z,84.40
2022-10-05T02:43:52.160Z,84.91
2022-10-05T02:46:26.658Z,83.24
2022-10-05T02:49:20.523Z,81.72
2022-10-05T02:51:48.202Z,81.89
2022-10-05T02:54:16.960Z,84.63
2022-10-05T02:56:47.123Z,85.02
2022-10-05T02:59:20.859Z,83.76
2022-10-05T03:01:52.562Z,84.58
2022-10-05T03:04:27.252Z,85.33
2022-10-05T03:06:58.520Z,85.00
2022-10-05T03:09:26.409Z,85.19
2022-10-05T03:11:57.684Z,83.18
2022-10-05T03:14:27.070Z,83.68
2022-10-05T03:17:01.556Z,84.22
2022-10-05T03:19:38.181Z,83.83
2022-10-05T03:22:07.549Z,82.08
2022-10-05T03:24:50.600Z,81.24
2022-10-05T03:27:27.482Z,79.07
2022-10-05T03:30:01.901Z,78.88
2022-10-05T03:32:32.717Z,79.04
2022-10-05T03:35:04.259Z,77.60
2022-10-05T03:37:36.653Z,79.90
2022-10-05T03:40:04.845Z,80.48
2022-10-05T03:42:34.744Z,79.64
2022-10-05T03:45:03.522Z,80.02
2022-10-05T03:47:38.023Z,81.21
2022-10-05T03:50:13.078Z,81.13
2022-10-05T03:52:43.689Z,79.67
2022-10-05T03:55:16.531Z,80.59
2022-10-05T03:57:44.440Z,79.43
2022-10-05T04:00:13.838Z,79.80
2022-10-05T04:02:42.639Z,78.97
2022-10-05T04:05:15.402Z,79.29
2022-10-05T04:07:44.513Z,77.75
2022-10-05T04:10:25.925Z,78.66
2022-10-05T04:12:56.491Z,77.76
2022-10-05T04:15:25.694Z,78.82
2022-10-05T04:17:53.784Z,79.71
2022-10-05T04:20:23.864Z,79.39
2022-10-05T04:22:55.011Z,80.30
2022-10-05T04:25:26.212Z,80.81
2022-10-05T04:27:54.246Z,81.08
2022-10-05T04:30:22.343Z,82.84
2022-10-05T04:32:52.829Z,84.20
2022-10-05T04:35:25.828Z,85.52
2022-10-05T04:37:55.587Z,85.00
2022-10-05T04:40:28.105Z,85.57
2022-10-05T04:42:57.632Z,85.60
2022-10-05T04:45:28.776Z,84.10
2022-10-05T04:48:03.015Z,84.00
2022-10-05T04:50:35.927Z,83.87
2022-10-05T04:53:06.652Z,84.75
2022-10-05T04:55:36.916Z,84.72
2022-10-05T04:58:10.598Z,84.34
2022-10-05T05:00:41.805Z,83.35
2022-10-05T05:03:16.026Z,81.18
2022-10-05T05:06:12.131Z,82.42
2022-10-05T05:08:40.369Z,83.16
2022-10-05T05:11:16.190Z,84.02
2022-10-05T05:14:01.863Z,83.86
2022-10-05T05:16:33.170Z,84.07
2022-10-05T05:19:35.330Z,84.15
2022-10-05T05:22:06.034Z,82.95
2022-10-05T05:24:42.551Z,81.41
2022-10-05T05:27:31.137Z,82.63
2022-10-05T05:30:02.311Z,84.23
2022-10-05T05:32:33.750Z,82.66
2022-10-05T05:35:05.934Z,83.57
2022-10-05T05:37:40.347Z,82.79
2022-10-05T05:40:12.898Z,82.37
2022-10-05T05:42:45.400Z,83.30
2022-10-05T05:45:19.984Z,83.57
2022-10-05T05:47:54.363Z,83.24
2022-10-05T05:50:30.681Z,82.02
2022-10-05T05:53:01.451Z,81.50
2022-10-05T05:55:31.039Z,82.80
2022-10-05T05:58:00.093Z,83.25
2022-10-05T06:00:28.129Z,81.69
2022-10-05T06:02:56.858Z,82.51
2022-10-05T06:05:29.179Z,80.51
2022-10-05T06:07:58.297Z,82.22
2022-10-05T06:10:29.643Z,81.97
2022-10-05T06:13:01.578Z,81.36
2022-10-05T06:15:30.314Z,81.23
2022-10-05T06:18:01.941Z,81.28
2022-10-05T06:20:30.188Z,80.31
2022-10-05T06:23:03.326Z,79.25
2022-10-05T06:25:34.650Z,79.66
2022-10-05T06:28:11.840Z,78.64
2022-10-05T06:30:44.870Z,78.22
2022-10-05T06:33:17.688Z,77.37
2022-10-05T06:35:52.137Z,77.06
2022-10-05T06:38:28.733Z,78.94
2022-10-05T06:41:04.326Z,78.91
2022-10-05T06:43:37.629Z,76.58
2022-10-05T06:46:09.378Z,77.16
2022-10-05T06:48:46.184Z,77.18
2022-10-05T06:51:18.691Z,76.01
2022-10-05T06:53:50.144Z,76.52
2022-10-05T06:56:20.290Z,75.88
2022-10-05T06:58:53.281Z,76.26
2022-10-05T07:01:25.294Z,78.00
2022-10-05T07:03:57.490Z,76.59
2022-10-05T07:06:25.902Z,76.74
2022-10-05T07:08:55.876Z,77.09
2022-10-05T07:11:31.893Z,76.70
2022-10-05T07:14:05.738Z,77.20
2022-10-05T07:16:39.211Z,76.55
2022-10-05T07:19:12.633Z,78.19
2022-10-05T07:21:43.635Z,76.13
2022-10-05T07:24:14.257Z,75.26
2022-10-05T07:26:52.942Z,75.99
2022-10-05T07:29:25.208Z,74.52
2022-10-05T07:32:02.057Z,75.71
2022-10-05T07:34:33.302Z,75.45
2022-10-05T07:37:19.186Z,74.90
2022-10-05T07:40:00.126Z,74.90
2022-10-05T07:42:38.884Z,74.69
2022-10-05T07:45:15.404Z,75.80
2022-10-05T07:47:45.091Z,74.66
2022-10-05T07:50:20.585Z,74.97
2022-10-05T07:52:50.026Z,73.89
2022-10-05T07:55:21.166Z,72.96
2022-10-05T07:57:53.697Z,72.35
2022-10-05T08:00:24.396Z,72.60
2022-10-05T08:02:52.530Z,73.14
2022-10-05T08:05:21.800Z,73.91
2022-10-05T08:07:51.866Z,74.04
2022-10-05T08:10:23.506Z,74.09
2022-10-05T08:13:01.834Z,73.35
2022-10-05T08:15:33.289Z,74.04
2022-10-05T08:18:01.774Z,74.89
2022-10-05T08:20:38.632Z,74.19
2022-10-05T08:23:14.472Z,75.03
2022-10-05T08:25:43.269Z,75.85
2022-10-05T08:28:14.954Z,76.04
2022-10-05T08:30:54.301Z,75.57
2022-10-05T08:33:22.629Z,76.10
2022-10-05T08:35:52.044Z,74.61
2022-10-05T08:38:23.014Z,75.75
2022-10-05T08:41:11.472Z,74.83
2022-10-05T08:43:49.505Z,74.10
2022-10-05T08:46:23.105Z,75.14
2022-10-05T08:49:11.242Z,74.63
2022-10-05T08:51:46.428Z,74.11
2022-10-05T08:54:20.079Z,74.52
2022-10-05T08:56:50.614Z,75.34
2022-10-05T08:59:23.935Z,74.61
2022-10-05T09:02:06.979Z,74.73
2022-10-05T09:04:39.660Z,75.71
2022-10-05T09:07:13.830Z,73.39
2022-10-05T09:10:07.642Z,73.07
2022-10-05T09:12:47.550Z,72.73
2022-10-05T09:15:31.568Z,74.84
2022-10-05T09:18:20.026Z,73.80
2022-10-05T09:23:38.056Z,71.80
2022-10-05T09:26:08.866Z,71.90
2022-10-05T09:28:39.147Z,70.91
2022-10-05T09:31:14.450Z,69.98
2022-10-05T09:33:54.086Z,70.25
2022-10-05T09:36:31.945Z,69.88
2022-10-05T09:39:32.573Z,68.82
2022-10-05T09:42:05.996Z,69.44
2022-10-05T09:44:55.043Z,70.03
2022-10-05T09:47:37.749Z,69.49
2022-10-05T09:50:33.223Z,69.39
2022-10-05T09:53:06.983Z,69.06
2022-10-05T09:55:39.333Z,68.56
2022-10-05T09:58:18.742Z,67.54
2022-10-05T10:00:55.675Z,69.09
2022-10-05T10:03:50.978Z,69.78
2022-10-05T10:06:23.980Z,66.48
2022-10-05T10:09:00.182Z,68.40
2022-10-05T10:11:34.167Z,66.86
2022-10-05T10:14:22.018Z,66.65
2022-10-05T10:16:53.799Z,65.92
2022-10-05T10:19:25.045Z,64.19
2022-10-05T10:22:12.597Z,64.99
2022-10-05T10:24:48.573Z,63.41
2022-10-05T10:27:18.205Z,64.00
2022-10-05T10:29:49.427Z,65.57
2022-10-05T10:32:21.234Z,65.25
2022-10-05T10:35:04.363Z,64.39
2022-10-05T10:37:37.656Z,64.42
2022-10-05T10:40:14.088Z,64.49
2022-10-05T10:42:51.404Z,65.54
2022-10-05T10:45:27.869Z,65.67
2022-10-05T10:48:05.162Z,65.88
2022-10-05T10:50:54.855Z,65.44
2022-10-05T10:53:41.996Z,64.58
2022-10-05T10:56:18.819Z,65.04
2022-10-05T10:59:02.393Z,63.84
2022-10-05T11:01:32.901Z,64.12
2022-10-05T11:04:13.531Z,63.23
2022-10-05T11:06:45.605Z,63.07
2022-10-05T11:09:20.092Z,61.54
2022-10-05T11:11:59.120Z,63.21
2022-10-05T11:14:41.579Z,63.70
2022-10-05T11:17:12.627Z,63.04
2022-10-05T11:20:03.266Z,63.53
2022-10-05T11:22:46.756Z,62.10
2022-10-05T11:25:20.925Z,62.23
2022-10-05T11:27:54.572Z,64.93
2022-10-05T11:30:32.784Z,62.85
2022-10-05T11:33:18.366Z,61.83
2022-10-05T11:35:54.368Z,60.51
2022-10-05T11:38:24.436Z,60.94
2022-10-05T11:41:16.495Z,62.89
2022-10-05T11:44:06.214Z,61.98
2022-10-05T11:46:50.310Z,62.59
2022-10-05T11:49:23.297Z,63.03
2022-10-05T11:51:52.835Z,60.84
2022-10-05T11:54:38.296Z,61.54
2022-10-05T11:57:17.679Z,61.26
2022-10-05T11:59:49.239Z,60.07
2022-10-05T12:02:37.911Z,59.57
2022-10-05T12:05:11.325Z,59.45
2022-10-05T12:07:40.926Z,58.20
2022-10-05T12:10:17.045Z,57.89
2022-10-05T12:12:59.858Z,59.40
2022-10-05T12:15:28.196Z,57.68
2022-10-05T12:17:59.240Z,56.19
2022-10-05T12:20:27.255Z,57.21
2022-10-05T12:22:56.946Z,56.38
2022-10-05T12:25:26.826Z,55.85
2022-10-05T12:27:55.235Z,55.36
2022-10-05T12:30:27.443Z,56.31
2022-10-05T12:33:02.192Z,56.48
2022-10-05T12:35:47.761Z,54.25
2022-10-05T12:38:18.649Z,56.22
2022-10-05T12:40:47.236Z,54.34
2022-10-05T12:43:18.541Z,53.18
2022-10-05T12:45:52.837Z,54.64
2022-10-05T12:48:26.291Z,53.99
2022-10-05T12:50:56.325Z,52.70
2022-10-05T12:53:26.180Z,53.49
2022-10-05T12:55:55.094Z,56.50
2022-10-05T12:58:25.790Z,57.83
2022-10-05T13:00:56.157Z,58.89
2022-10-05T13:03:27.368Z,59.37
2022-10-05T13:06:02.443Z,61.02
2022-10-05T13:08:31.893Z,61.88
2022-10-05T13:11:02.078Z,62.44
2022-10-05T13:13:38.646Z,62.85
2022-10-05T13:16:09.537Z,62.07
2022-10-05T13:18:42.195Z,60.71
2022-10-05T13:21:14.802Z,58.90
2022-10-05T13:23:45.813Z,58.55
2022-10-05T13:26:15.752Z,59.58
2022-10-05T13:28:58.579Z,60.40
2022-10-05T13:31:27.779Z,59.34
2022-10-05T13:34:04.852Z,59.02
2022-10-05T13:36:35.905Z,59.49
2022-10-05T13:39:06.631Z,59.51
2022-10-05T13:41:38.029Z,60.58
2022-10-05T13:44:19.203Z,58.70
2022-10-05T13:46:49.801Z,58.48
2022-10-05T13:49:29.470Z,58.85
2022-10-05T13:52:02.683Z,57.12
2022-10-05T13:54:36.091Z,56.72
2022-10-05T13:57:07.945Z,56.37
2022-10-05T13:59:36.807Z,56.49
2022-10-05T14:02:06.423Z,56.53
2022-10-05T14:04:45.613Z,55.65
2022-10-05T14:07:22.289Z,55.76
2022-10-05T14:09:50.486Z,55.34
2022-10-05T14:12:23.477Z,56.19
2022-10-05T14:14:55.271Z,55.30
2022-10-05T14:17:39.198Z,54.28
2022-10-05T14:20:23.050Z,54.65
2022-10-05T14:22:53.211Z,56.94
2022-10-05T14:25:21.053Z,57.05
2022-10-05T14:27:54.308Z,57.42
2022-10-05T14:30:28.203Z,58.57
2022-10-05T14:32:57.011Z,58.61
2022-10-05T14:35:26.446Z,59.12
2022-10-05T14:37:57.827Z,58.50
2022-10-05T14:40:27.327Z,57.37
2022-10-05T14:42:55.061Z,57.36
2022-10-05T14:45:23.784Z,57.43
2022-10-05T14:48:08.282Z,56.79
2022-10-05T14:50:50.889Z,56.08
2022-10-05T14:53:22.352Z,56.15
2022-10-05T14:56:06.407Z,55.37
2022-10-05T14:58:42.726Z,55.03
2022-10-05T15:01:15.110Z,54.75
2022-10-05T15:03:46.724Z,54.19
2022-10-05T15:06:17.829Z,54.43
2022-10-05T15:08:52.105Z,54.38
2022-10-05T15:11:23.144Z,53.03
2022-10-05T15:13:51.188Z,53.63
2022-10-05T15:16:20.395Z,49.91
2022-10-05T15:18:55.783Z,45.80
2022-10-05T15:21:30.607Z,47.22
2022-10-05T15:23:58.727Z,46.78
2022-10-05T15:26:33.487Z,47.73
2022-10-05T15:29:04.625Z,48.21
2022-10-05T15:31:37.304Z,47.87
2022-10-05T15:34:07.401Z,47.44
2022-10-05T15:36:38.398Z,47.99
2022-10-05T15:39:10.057Z,48.35
2022-10-05T15:41:53.948Z,48.33
2022-10-05T15:44:26.539Z,49.20
2022-10-05T15:46:56.790Z,47.99
2022-10-05T15:49:29.206Z,47.81
2022-10-05T15:51:59.681Z,49.43
2022-10-05T15:54:43.857Z,48.93
2022-10-05T15:57:20.529Z,49.44
2022-10-05T15:59:50.819Z,48.95
2022-10-05T16:02:22.203Z,50.03
2022-10-05T16:04:52.611Z,49.42
2022-10-05T16:07:41.466Z,49.96
2022-10-05T16:10:10.253Z,50.52
2022-10-05T16:12:42.718Z,50.72
2022-10-05T16:15:16.873Z,51.51
2022-10-05T16:17:55.265Z,52.10
2022-10-05T16:20:25.694Z,51.76
2022-10-05T16:22:59.970Z,50.54
2022-10-05T16:25:28.945Z,50.13
2022-10-05T16:28:05.468Z,49.20
2022-10-05T16:30:39.507Z,48.84
2022-10-05T16:33:12.858Z,49.40
2022-10-05T16:35:44.329Z,50.49
2022-10-05T16:38:18.071Z,50.35
2022-10-05T16:40:46.902Z,51.11
2022-10-05T16:43:18.898Z,51.24
2022-10-05T16:45:51.754Z,51.64
2022-10-05T16:48:22.457Z,52.48
2022-10-05T16:50:54.196Z,52.31
2022-10-05T16:53:27.276Z,53.06
2022-10-05T16:55:55.877Z,52.49
2022-10-05T16:58:27.655Z,52.03
2022-10-05T17:01:04.794Z,52.90
2022-10-05T17:03:40.126Z,54.15
2022-10-05T17:06:21.135Z,54.52
2022-10-05T17:09:03.762Z,54.23
2022-10-05T17:11:35.790Z,54.70
2022-10-05T17:14:07.909Z,54.45
2022-10-05T17:16:39.337Z,54.26
2022-10-05T17:19:12.338Z,54.65
2022-10-05T17:21:44.678Z,55.87
2022-10-05T17:24:25.848Z,55.50
2022-10-05T17:26:56.721Z,55.41
2022-10-05T17:29:28.026Z,56.65
2022-10-05T17:32:00.687Z,56.44
2022-10-05T17:34:28.541Z,56.35
2022-10-05T17:37:01.661Z,56.54
2022-10-05T17:39:44.150Z,56.66
2022-10-05T17:42:39.011Z,58.14
2022-10-05T17:45:21.475Z,58.88
2022-10-05T17:47:59.142Z,58.94
2022-10-05T17:50:55.673Z,60.28
2022-10-05T17:53:41.440Z,59.54
2022-10-05T17:56:09.629Z,59.87
2022-10-05T17:59:01.249Z,58.96
2022-10-05T18:01:32.320Z,58.77
2022-10-05T18:04:16.141Z,58.69
2022-10-05T18:06:48.111Z,59.64
2022-10-05T18:09:22.449Z,60.01
2022-10-05T18:12:03.916Z,60.53
2022-10-05T18:14:32.494Z,59.64
2022-10-05T18:17:01.689Z,60.20
2022-10-05T18:19:33.578Z,59.97
2022-10-05T18:22:04.505Z,59.97
2022-10-05T18:24:41.961Z,60.62
2022-10-05T18:27:30.492Z,59.21
2022-10-05T18:30:05.591Z,59.30
2022-10-05T18:32:40.145Z,59.25
2022-10-05T18:35:09.135Z,58.59
2022-10-05T18:37:42.383Z,58.79
2022-10-05T18:40:38.282Z,58.93
2022-10-05T18:43:09.621Z,58.50
2022-10-05T18:45:39.825Z,58.92
2022-10-05T18:48:14.092Z,59.52
2022-10-05T18:50:42.445Z,59.09
2022-10-05T18:53:18.524Z,59.83
2022-10-05T18:55:46.883Z,59.63
2022-10-05T18:58:18.063Z,59.91
2022-10-05T19:01:17.169Z,59.69
2022-10-05T19:03:49.208Z,59.70
2022-10-05T19:06:19.319Z,61.65
2022-10-05T19:08:50.802Z,61.03
2022-10-05T19:11:19.500Z,60.35
2022-10-05T19:13:49.878Z,60.22
2022-10-05T19:16:23.836Z,60.17
2022-10-05T19:18:55.039Z,60.57
2022-10-05T19:21:26.289Z,60.06
2022-10-05T19:24:04.482Z,60.48
2022-10-05T19:27:00.134Z,61.51
2022-10-05T19:29:40.118Z,61.96
2022-10-05T19:32:09.552Z,62.76
2022-10-05T19:34:48.123Z,62.82
2022-10-05T19:37:17.970Z,64.59
2022-10-05T19:39:49.339Z,63.80
2022-10-05T19:42:24.671Z,64.98
2022-10-05T19:44:56.927Z,65.74
2022-10-05T19:47:41.100Z,66.50
2022-10-05T19:50:20.321Z,65.96
2022-10-05T19:52:50.261Z,67.00
2022-10-05T19:55:26.648Z,66.27
2022-10-05T19:57:55.169Z,66.71
2022-10-05T20:00:25.087Z,66.46
2022-10-05T20:02:52.933Z,67.46
2022-10-05T20:05:20.903Z,67.38
2022-10-05T20:07:48.487Z,68.04
2022-10-05T20:10:23.038Z,67.61
2022-10-05T20:12:56.006Z,67.49
2022-10-05T20:15:41.575Z,68.13
2022-10-05T20:18:47.319Z,68.06
2022-10-05T20:21:32.057Z,67.52
2022-10-05T20:24:13.651Z,68.19
2022-10-05T20:26:59.191Z,68.47
2022-10-05T20:29:32.401Z,68.60
2022-10-05T20:32:00.252Z,69.29
2022-10-05T20:34:27.990Z,68.78
2022-10-05T20:36:57.146Z,69.53
2022-10-05T20:39:24.666Z,68.92
2022-10-05T20:41:52.244Z,68.71
2022-10-05T20:44:24.342Z,68.88
2022-10-05T20:46:58.684Z,68.71
2022-10-05T20:49:27.086Z,69.53
2022-10-05T20:51:58.123Z,69.46
2022-10-05T20:54:25.983Z,69.00
2022-10-05T20:56:55.262Z,69.06
2022-10-05T20:59:23.358Z,68.15
2022-10-05T21:01:50.967Z,67.92
2022-10-05T21:04:20.927Z,68.04
2022-10-05T21:06:48.574Z,68.32
2022-10-05T21:09:21.405Z,67.44
2022-10-05T21:11:55.530Z,67.15
2022-10-05T21:14:23.766Z,67.54
2022-10-05T21:16:52.650Z,67.62
2022-10-05T21:19:25.246Z,67.35
2022-10-05T21:21:54.278Z,67.55
2022-10-05T21:24:23.735Z,66.62
2022-10-05T21:26:51.608Z,67.12
2022-10-05T21:29:19.613Z,66.92
2022-10-05T21:31:47.288Z,66.55
2022-10-05T21:34:16.136Z,65.82
2022-10-05T21:36:46.303Z,67.58
2022-10-05T21:39:14.256Z,67.39
2022-10-05T21:41:42.020Z,66.82
2022-10-05T21:44:12.378Z,67.12
2022-10-05T21:46:40.466Z,67.38
2022-10-05T21:49:17.538Z,67.84
2022-10-05T21:51:49.149Z,68.21
2022-10-05T21:54:17.847Z,68.31
2022-10-05T21:56:46.181Z,68.17
2022-10-05T21:59:16.654Z,67.95
2022-10-05T22:01:44.655Z,68.34
2022-10-05T22:04:12.548Z,68.40
2022-10-05T22:06:43.394Z,69.53
2022-10-05T22:09:12.658Z,68.46
2022-10-05T22:11:40.548Z,68.61
2022-10-05T22:14:08.277Z,68.45
2022-10-05T22:16:42.157Z,68.26
2022-10-05T22:19:12.024Z,68.07
2022-10-05T22:21:42.164Z,68.04
2022-10-05T22:24:10.183Z,68.32
2022-10-05T22:26:40.220Z,68.75
2022-10-05T22:29:09.707Z,68.28
2022-10-05T22:42:59.723Z,68.72
2022-10-05T22:48:42.269Z,68.72
2022-10-05T22:51:12.696Z,67.69
2022-10-05T22:53:42.068Z,67.46
2022-10-05T22:56:13.344Z,67.31
2022-10-05T22:58:43.116Z,66.78
2022-10-05T23:01:11.849Z,67.53
2022-10-05T23:03:42.226Z,67.01
2022-10-05T23:06:13.496Z,67.01
2022-10-05T23:08:43.412Z,66.64
2022-10-05T23:11:13.140Z,66.75
2022-10-05T23:13:42.240Z,67.61
2022-10-05T23:16:12.239Z,66.97
2022-10-05T23:18:41.850Z,67.59
2022-10-05T23:21:13.380Z,67.85
2022-10-05T23:23:43.609Z,66.93
2022-10-05T23:26:11.858Z,67.17
2022-10-05T23:28:43.062Z,67.48
2022-10-05T23:31:12.187Z,67.28
2022-10-05T23:33:39.781Z,67.59
2022-10-05T23:36:08.431Z,66.58
2022-10-05T23:38:37.726Z,66.47
2022-10-05T23:41:05.673Z,66.50
2022-10-05T23:43:33.854Z,66.29
2022-10-05T23:46:01.748Z,66.91
2022-10-05T23:48:32.945Z,67.38
2022-10-05T23:51:00.806Z,67.47
2022-10-05T23:53:28.369Z,67.54
2022-10-05T23:55:55.945Z,67.99
2022-10-05T23:58:24.056Z,68.45
